Terminal Aerodrome Forecast
Issued by NWS

Home | Current Version | Previous Version | Text Only | Print | Product List | Glossary On
Versions: 1 2 3 4 5 6 7 8 9 10 11 12 13 14 15 16 17
848
FTUS44 KJAN 021720
TAFHKS
TAF
KHKS 021720Z 0218/0318 09005KT P6SM SCT100
     FM031400 07007KT P6SM -RA OVC050=

USA.gov is the U.S. government's official web portal to all federal, state and local government web resources and services.